sensor_id;sensor_type;location;lat;lon;timestamp;P1;durP1;ratioP1;P2;durP2;ratioP2
6842;SDS011;3460;52.028;8.916;2023-04-02T00:05:21;3.57;;;2.50;;
6842;SDS011;3460;52.028;8.916;2023-04-02T00:08:16;4.23;;;2.57;;
6842;SDS011;3460;52.028;8.916;2023-04-02T00:10:47;2.73;;;2.50;;
6842;SDS011;3460;52.028;8.916;2023-04-02T00:13:21;3.60;;;2.40;;
6842;SDS011;3460;52.028;8.916;2023-04-02T00:15:55;2.53;;;2.33;;
6842;SDS011;3460;52.028;8.916;2023-04-02T00:18:24;3.93;;;2.90;;
6842;SDS011;3460;52.028;8.916;2023-04-02T00:20:52;3.27;;;2.70;;
6842;SDS011;3460;52.028;8.916;2023-04-02T00:23:23;4.20;;;2.23;;
6842;SDS011;3460;52.028;8.916;2023-04-02T00:25:50;4.40;;;2.30;;
6842;SDS011;3460;52.028;8.916;2023-04-02T00:28:17;2.90;;;2.63;;
6842;SDS011;3460;52.028;8.916;2023-04-02T00:30:46;4.17;;;2.50;;
6842;SDS011;3460;52.028;8.916;2023-04-02T00:33:17;3.17;;;2.60;;
6842;SDS011;3460;52.028;8.916;2023-04-02T00:35:46;4.60;;;3.43;;
6842;SDS011;3460;52.028;8.916;2023-04-02T00:38:17;3.20;;;2.80;;
6842;SDS011;3460;52.028;8.916;2023-04-02T00:40:47;4.37;;;3.00;;
6842;SDS011;3460;52.028;8.916;2023-04-02T00:43:16;3.27;;;2.77;;
6842;SDS011;3460;52.028;8.916;2023-04-02T00:45:45;4.07;;;2.57;;
6842;SDS011;3460;52.028;8.916;2023-04-02T00:48:22;3.60;;;2.60;;
6842;SDS011;3460;52.028;8.916;2023-04-02T00:51:07;4.80;;;2.63;;
6842;SDS011;3460;52.028;8.916;2023-04-02T00:53:39;3.47;;;2.37;;
6842;SDS011;3460;52.028;8.916;2023-04-02T00:56:12;4.10;;;2.60;;
6842;SDS011;3460;52.028;8.916;2023-04-02T00:58:43;3.57;;;3.00;;
6842;SDS011;3460;52.028;8.916;2023-04-02T01:01:14;4.73;;;3.20;;
6842;SDS011;3460;52.028;8.916;2023-04-02T01:03:44;5.13;;;2.80;;
6842;SDS011;3460;52.028;8.916;2023-04-02T01:06:22;3.47;;;2.80;;
6842;SDS011;3460;52.028;8.916;2023-04-02T01:09:02;7.03;;;3.40;;
6842;SDS011;3460;52.028;8.916;2023-04-02T01:14:47;4.63;;;3.13;;
6842;SDS011;3460;52.028;8.916;2023-04-02T01:20:16;4.00;;;3.37;;
6842;SDS011;3460;52.028;8.916;2023-04-02T01:23:20;5.40;;;4.23;;
6842;SDS011;3460;52.028;8.916;2023-04-02T01:25:53;5.43;;;4.03;;
6842;SDS011;3460;52.028;8.916;2023-04-02T01:28:26;5.43;;;4.10;;
6842;SDS011;3460;52.028;8.916;2023-04-02T01:30:59;6.87;;;4.23;;
6842;SDS011;3460;52.028;8.916;2023-04-02T01:33:28;7.00;;;4.20;;
6842;SDS011;3460;52.028;8.916;2023-04-02T01:36:00;8.30;;;4.83;;
6842;SDS011;3460;52.028;8.916;2023-04-02T01:38:32;5.80;;;4.37;;
6842;SDS011;3460;52.028;8.916;2023-04-02T01:41:05;8.90;;;4.63;;
6842;SDS011;3460;52.028;8.916;2023-04-02T01:43:38;7.43;;;4.60;;
6842;SDS011;3460;52.028;8.916;2023-04-02T01:46:24;6.97;;;4.40;;
6842;SDS011;3460;52.028;8.916;2023-04-02T01:48:52;6.57;;;4.77;;
6842;SDS011;3460;52.028;8.916;2023-04-02T01:51:25;8.53;;;5.00;;
6842;SDS011;3460;52.028;8.916;2023-04-02T01:53:54;7.40;;;5.00;;
6842;SDS011;3460;52.028;8.916;2023-04-02T01:56:24;6.23;;;4.20;;
6842;SDS011;3460;52.028;8.916;2023-04-02T01:58:52;9.37;;;5.27;;
6842;SDS011;3460;52.028;8.916;2023-04-02T02:01:19;9.47;;;5.30;;
6842;SDS011;3460;52.028;8.916;2023-04-02T02:03:50;8.67;;;4.67;;
6842;SDS011;3460;52.028;8.916;2023-04-02T02:06:17;6.93;;;5.43;;
6842;SDS011;3460;52.028;8.916;2023-04-02T02:08:45;8.17;;;4.90;;
6842;SDS011;3460;52.028;8.916;2023-04-02T02:11:16;9.33;;;5.17;;
6842;SDS011;3460;52.028;8.916;2023-04-02T02:13:45;9.10;;;5.00;;
6842;SDS011;3460;52.028;8.916;2023-04-02T02:16:14;8.93;;;5.43;;
6842;SDS011;3460;52.028;8.916;2023-04-02T02:18:43;7.80;;;4.90;;
6842;SDS011;3460;52.028;8.916;2023-04-02T02:21:17;10.63;;;5.23;;
6842;SDS011;3460;52.028;8.916;2023-04-02T02:23:53;9.57;;;5.63;;
6842;SDS011;3460;52.028;8.916;2023-04-02T02:26:21;7.90;;;4.90;;
6842;SDS011;3460;52.028;8.916;2023-04-02T02:28:51;9.03;;;5.50;;
6842;SDS011;3460;52.028;8.916;2023-04-02T02:31:21;6.90;;;4.10;;
6842;SDS011;3460;52.028;8.916;2023-04-02T02:33:55;7.17;;;4.07;;
6842;SDS011;3460;52.028;8.916;2023-04-02T02:36:27;7.50;;;4.20;;
6842;SDS011;3460;52.028;8.916;2023-04-02T02:39:00;12.20;;;4.63;;
6842;SDS011;3460;52.028;8.916;2023-04-02T02:41:32;7.13;;;4.33;;
6842;SDS011;3460;52.028;8.916;2023-04-02T02:44:08;8.03;;;4.53;;
6842;SDS011;3460;52.028;8.916;2023-04-02T02:46:41;11.80;;;5.27;;
6842;SDS011;3460;52.028;8.916;2023-04-02T02:49:12;7.10;;;4.53;;
6842;SDS011;3460;52.028;8.916;2023-04-02T02:51:43;9.83;;;5.03;;
6842;SDS011;3460;52.028;8.916;2023-04-02T02:54:13;4.13;;;3.67;;
6842;SDS011;3460;52.028;8.916;2023-04-02T02:56:44;7.03;;;3.67;;
6842;SDS011;3460;52.028;8.916;2023-04-02T02:59:13;8.10;;;4.20;;
6842;SDS011;3460;52.028;8.916;2023-04-02T03:01:41;5.57;;;3.97;;
6842;SDS011;3460;52.028;8.916;2023-04-02T03:04:09;8.57;;;3.97;;
6842;SDS011;3460;52.028;8.916;2023-04-02T03:06:37;9.60;;;3.83;;
6842;SDS011;3460;52.028;8.916;2023-04-02T03:09:09;6.30;;;3.80;;
6842;SDS011;3460;52.028;8.916;2023-04-02T03:11:44;7.17;;;4.10;;
6842;SDS011;3460;52.028;8.916;2023-04-02T03:14:19;5.70;;;3.50;;
6842;SDS011;3460;52.028;8.916;2023-04-02T03:16:53;6.43;;;4.17;;
6842;SDS011;3460;52.028;8.916;2023-04-02T03:19:27;8.30;;;4.20;;
6842;SDS011;3460;52.028;8.916;2023-04-02T03:22:00;8.17;;;4.30;;
6842;SDS011;3460;52.028;8.916;2023-04-02T03:24:34;7.33;;;3.97;;
6842;SDS011;3460;52.028;8.916;2023-04-02T03:27:06;5.60;;;3.70;;
6842;SDS011;3460;52.028;8.916;2023-04-02T03:29:40;7.13;;;4.10;;
6842;SDS011;3460;52.028;8.916;2023-04-02T03:32:14;6.83;;;3.40;;
6842;SDS011;3460;52.028;8.916;2023-04-02T03:34:45;7.53;;;3.90;;
6842;SDS011;3460;52.028;8.916;2023-04-02T03:37:16;5.70;;;3.50;;
6842;SDS011;3460;52.028;8.916;2023-04-02T03:39:49;9.67;;;3.80;;
6842;SDS011;3460;52.028;8.916;2023-04-02T03:42:20;5.60;;;3.30;;
6842;SDS011;3460;52.028;8.916;2023-04-02T03:44:50;6.80;;;3.23;;
6842;SDS011;3460;52.028;8.916;2023-04-02T03:47:22;7.27;;;3.40;;
6842;SDS011;3460;52.028;8.916;2023-04-02T03:49:56;5.73;;;3.80;;
6842;SDS011;3460;52.028;8.916;2023-04-02T03:52:28;6.27;;;3.40;;
6842;SDS011;3460;52.028;8.916;2023-04-02T03:54:57;9.70;;;3.73;;
6842;SDS011;3460;52.028;8.916;2023-04-02T03:57:26;7.93;;;3.67;;
6842;SDS011;3460;52.028;8.916;2023-04-02T03:59:59;5.23;;;3.00;;
6842;SDS011;3460;52.028;8.916;2023-04-02T04:02:34;5.30;;;2.90;;
6842;SDS011;3460;52.028;8.916;2023-04-02T04:05:06;5.87;;;2.77;;
6842;SDS011;3460;52.028;8.916;2023-04-02T04:07:46;4.73;;;2.60;;
6842;SDS011;3460;52.028;8.916;2023-04-02T04:10:20;6.97;;;2.70;;
6842;SDS011;3460;52.028;8.916;2023-04-02T04:12:51;3.83;;;2.70;;
6842;SDS011;3460;52.028;8.916;2023-04-02T04:15:21;4.90;;;2.50;;
6842;SDS011;3460;52.028;8.916;2023-04-02T04:17:53;7.20;;;2.67;;
6842;SDS011;3460;52.028;8.916;2023-04-02T04:20:28;3.67;;;2.47;;
6842;SDS011;3460;52.028;8.916;2023-04-02T04:23:10;4.07;;;2.63;;
6842;SDS011;3460;52.028;8.916;2023-04-02T04:25:45;3.63;;;2.33;;
6842;SDS011;3460;52.028;8.916;2023-04-02T04:28:15;6.00;;;2.70;;
6842;SDS011;3460;52.028;8.916;2023-04-02T04:30:49;4.50;;;2.80;;
6842;SDS011;3460;52.028;8.916;2023-04-02T04:33:24;4.83;;;2.80;;
6842;SDS011;3460;52.028;8.916;2023-04-02T04:35:58;5.77;;;2.70;;
6842;SDS011;3460;52.028;8.916;2023-04-02T04:38:28;4.13;;;2.70;;
6842;SDS011;3460;52.028;8.916;2023-04-02T04:40:59;7.70;;;2.53;;
6842;SDS011;3460;52.028;8.916;2023-04-02T04:43:32;4.67;;;2.60;;
6842;SDS011;3460;52.028;8.916;2023-04-02T04:46:07;3.67;;;2.40;;
6842;SDS011;3460;52.028;8.916;2023-04-02T04:48:37;3.47;;;2.40;;
6842;SDS011;3460;52.028;8.916;2023-04-02T04:51:16;4.93;;;1.93;;
6842;SDS011;3460;52.028;8.916;2023-04-02T04:53:46;7.07;;;2.57;;
6842;SDS011;3460;52.028;8.916;2023-04-02T04:56:18;4.97;;;2.40;;
6842;SDS011;3460;52.028;8.916;2023-04-02T04:58:49;6.23;;;2.50;;
6842;SDS011;3460;52.028;8.916;2023-04-02T05:01:21;6.13;;;2.33;;
6842;SDS011;3460;52.028;8.916;2023-04-02T05:03:53;7.27;;;2.70;;
6842;SDS011;3460;52.028;8.916;2023-04-02T05:06:32;3.00;;;2.27;;
6842;SDS011;3460;52.028;8.916;2023-04-02T05:09:05;6.47;;;2.20;;
6842;SDS011;3460;52.028;8.916;2023-04-02T05:11:40;6.90;;;2.50;;
6842;SDS011;3460;52.028;8.916;2023-04-02T05:14:13;5.37;;;2.20;;
6842;SDS011;3460;52.028;8.916;2023-04-02T05:16:47;5.77;;;3.03;;
6842;SDS011;3460;52.028;8.916;2023-04-02T05:19:20;7.73;;;2.53;;
6842;SDS011;3460;52.028;8.916;2023-04-02T05:21:53;3.77;;;2.40;;
6842;SDS011;3460;52.028;8.916;2023-04-02T05:24:32;5.43;;;2.33;;
6842;SDS011;3460;52.028;8.916;2023-04-02T05:27:11;10.67;;;2.40;;
6842;SDS011;3460;52.028;8.916;2023-04-02T05:29:46;7.70;;;2.13;;
6842;SDS011;3460;52.028;8.916;2023-04-02T05:32:19;3.00;;;2.03;;
6842;SDS011;3460;52.028;8.916;2023-04-02T05:34:49;4.90;;;2.20;;
6842;SDS011;3460;52.028;8.916;2023-04-02T05:37:20;4.63;;;2.10;;
6842;SDS011;3460;52.028;8.916;2023-04-02T05:39:52;4.10;;;2.23;;
6842;SDS011;3460;52.028;8.916;2023-04-02T05:42:22;5.03;;;2.00;;
6842;SDS011;3460;52.028;8.916;2023-04-02T05:44:55;3.07;;;2.20;;
6842;SDS011;3460;52.028;8.916;2023-04-02T05:47:30;5.90;;;2.30;;
6842;SDS011;3460;52.028;8.916;2023-04-02T05:52:58;3.87;;;1.70;;
6842;SDS011;3460;52.028;8.916;2023-04-02T05:55:34;6.23;;;1.97;;
6842;SDS011;3460;52.028;8.916;2023-04-02T05:58:15;4.27;;;2.00;;
6842;SDS011;3460;52.028;8.916;2023-04-02T06:00:49;2.90;;;2.10;;
6842;SDS011;3460;52.028;8.916;2023-04-02T06:03:24;3.23;;;1.83;;
6842;SDS011;3460;52.028;8.916;2023-04-02T06:05:57;7.20;;;2.10;;
6842;SDS011;3460;52.028;8.916;2023-04-02T06:08:30;3.73;;;2.00;;
6842;SDS011;3460;52.028;8.916;2023-04-02T06:11:03;7.47;;;2.80;;
6842;SDS011;3460;52.028;8.916;2023-04-02T06:13:36;5.73;;;2.20;;
6842;SDS011;3460;52.028;8.916;2023-04-02T06:16:03;7.13;;;2.20;;
6842;SDS011;3460;52.028;8.916;2023-04-02T06:18:30;4.30;;;1.90;;
6842;SDS011;3460;52.028;8.916;2023-04-02T06:21:00;4.67;;;2.20;;
6842;SDS011;3460;52.028;8.916;2023-04-02T06:23:29;10.97;;;4.13;;
6842;SDS011;3460;52.028;8.916;2023-04-02T06:25:59;6.83;;;3.03;;
6842;SDS011;3460;52.028;8.916;2023-04-02T06:28:30;5.67;;;2.40;;
6842;SDS011;3460;52.028;8.916;2023-04-02T06:31:06;6.60;;;2.27;;
6842;SDS011;3460;52.028;8.916;2023-04-02T06:33:35;4.90;;;1.87;;
6842;SDS011;3460;52.028;8.916;2023-04-02T06:36:04;5.63;;;2.67;;
6842;SDS011;3460;52.028;8.916;2023-04-02T06:38:33;8.73;;;3.07;;
6842;SDS011;3460;52.028;8.916;2023-04-02T06:41:02;7.23;;;2.53;;
6842;SDS011;3460;52.028;8.916;2023-04-02T06:43:34;3.50;;;1.83;;
6842;SDS011;3460;52.028;8.916;2023-04-02T06:46:08;2.83;;;1.80;;
6842;SDS011;3460;52.028;8.916;2023-04-02T06:48:40;3.97;;;1.50;;
6842;SDS011;3460;52.028;8.916;2023-04-02T06:51:09;3.20;;;1.80;;
6842;SDS011;3460;52.028;8.916;2023-04-02T06:53:38;3.30;;;1.90;;
6842;SDS011;3460;52.028;8.916;2023-04-02T06:56:10;3.50;;;1.60;;
6842;SDS011;3460;52.028;8.916;2023-04-02T06:58:44;4.73;;;1.90;;
6842;SDS011;3460;52.028;8.916;2023-04-02T07:01:13;7.40;;;1.90;;
6842;SDS011;3460;52.028;8.916;2023-04-02T07:03:42;1.83;;;1.50;;
6842;SDS011;3460;52.028;8.916;2023-04-02T07:06:12;3.57;;;2.00;;
6842;SDS011;3460;52.028;8.916;2023-04-02T07:08:41;3.50;;;2.10;;
6842;SDS011;3460;52.028;8.916;2023-04-02T07:11:08;2.53;;;1.67;;
6842;SDS011;3460;52.028;8.916;2023-04-02T07:13:37;5.70;;;2.17;;
6842;SDS011;3460;52.028;8.916;2023-04-02T07:16:04;4.70;;;1.93;;
6842;SDS011;3460;52.028;8.916;2023-04-02T07:18:38;6.03;;;1.70;;
6842;SDS011;3460;52.028;8.916;2023-04-02T07:21:05;4.60;;;1.87;;
6842;SDS011;3460;52.028;8.916;2023-04-02T07:23:31;3.23;;;1.80;;
6842;SDS011;3460;52.028;8.916;2023-04-02T07:25:58;1.93;;;1.50;;
6842;SDS011;3460;52.028;8.916;2023-04-02T07:28:26;3.03;;;1.83;;
6842;SDS011;3460;52.028;8.916;2023-04-02T07:30:54;2.23;;;1.73;;
6842;SDS011;3460;52.028;8.916;2023-04-02T07:33:22;3.10;;;1.50;;
6842;SDS011;3460;52.028;8.916;2023-04-02T07:35:52;2.67;;;1.70;;
6842;SDS011;3460;52.028;8.916;2023-04-02T07:38:20;3.07;;;1.60;;
6842;SDS011;3460;52.028;8.916;2023-04-02T07:40:47;2.63;;;1.63;;
6842;SDS011;3460;52.028;8.916;2023-04-02T07:43:14;2.97;;;1.57;;
6842;SDS011;3460;52.028;8.916;2023-04-02T07:45:41;3.07;;;1.47;;
6842;SDS011;3460;52.028;8.916;2023-04-02T07:48:08;2.87;;;1.47;;
6842;SDS011;3460;52.028;8.916;2023-04-02T07:50:37;2.13;;;1.40;;
6842;SDS011;3460;52.028;8.916;2023-04-02T07:53:05;4.50;;;1.60;;
6842;SDS011;3460;52.028;8.916;2023-04-02T07:55:32;2.37;;;1.60;;
6842;SDS011;3460;52.028;8.916;2023-04-02T07:57:59;4.20;;;1.63;;
6842;SDS011;3460;52.028;8.916;2023-04-02T08:00:27;3.43;;;1.47;;
6842;SDS011;3460;52.028;8.916;2023-04-02T08:02:54;2.93;;;1.80;;
6842;SDS011;3460;52.028;8.916;2023-04-02T08:05:21;2.13;;;1.37;;
6842;SDS011;3460;52.028;8.916;2023-04-02T08:07:51;3.73;;;1.63;;
6842;SDS011;3460;52.028;8.916;2023-04-02T08:10:20;5.43;;;1.70;;
6842;SDS011;3460;52.028;8.916;2023-04-02T08:12:48;5.27;;;1.50;;
6842;SDS011;3460;52.028;8.916;2023-04-02T08:15:15;2.83;;;1.40;;
6842;SDS011;3460;52.028;8.916;2023-04-02T08:17:42;2.33;;;1.63;;
6842;SDS011;3460;52.028;8.916;2023-04-02T08:20:11;3.80;;;1.77;;
6842;SDS011;3460;52.028;8.916;2023-04-02T08:22:42;5.73;;;1.73;;
6842;SDS011;3460;52.028;8.916;2023-04-02T08:25:09;4.30;;;1.57;;
6842;SDS011;3460;52.028;8.916;2023-04-02T08:27:37;4.20;;;1.63;;
6842;SDS011;3460;52.028;8.916;2023-04-02T08:30:05;3.10;;;1.70;;
6842;SDS011;3460;52.028;8.916;2023-04-02T08:32:33;4.20;;;1.73;;
6842;SDS011;3460;52.028;8.916;2023-04-02T08:35:00;4.23;;;1.57;;
6842;SDS011;3460;52.028;8.916;2023-04-02T08:37:27;3.67;;;1.90;;
6842;SDS011;3460;52.028;8.916;2023-04-02T08:39:54;3.80;;;2.30;;
6842;SDS011;3460;52.028;8.916;2023-04-02T08:42:22;4.67;;;1.53;;
6842;SDS011;3460;52.028;8.916;2023-04-02T08:45:00;4.27;;;1.47;;
6842;SDS011;3460;52.028;8.916;2023-04-02T08:47:37;3.60;;;1.57;;
6842;SDS011;3460;52.028;8.916;2023-04-02T08:50:10;3.10;;;1.30;;
6842;SDS011;3460;52.028;8.916;2023-04-02T08:52:40;2.33;;;1.60;;
6842;SDS011;3460;52.028;8.916;2023-04-02T08:55:12;3.10;;;1.80;;
6842;SDS011;3460;52.028;8.916;2023-04-02T08:57:48;2.93;;;1.53;;
6842;SDS011;3460;52.028;8.916;2023-04-02T09:00:26;2.07;;;1.43;;
6842;SDS011;3460;52.028;8.916;2023-04-02T09:03:03;3.00;;;1.60;;
6842;SDS011;3460;52.028;8.916;2023-04-02T09:05:36;3.30;;;1.60;;
6842;SDS011;3460;52.028;8.916;2023-04-02T09:08:08;2.03;;;1.80;;
6842;SDS011;3460;52.028;8.916;2023-04-02T09:10:44;2.43;;;1.83;;
6842;SDS011;3460;52.028;8.916;2023-04-02T09:13:17;3.57;;;1.57;;
6842;SDS011;3460;52.028;8.916;2023-04-02T09:15:50;3.93;;;1.77;;
6842;SDS011;3460;52.028;8.916;2023-04-02T09:18:21;3.40;;;1.77;;
6842;SDS011;3460;52.028;8.916;2023-04-02T09:20:48;3.27;;;2.00;;
6842;SDS011;3460;52.028;8.916;2023-04-02T09:23:16;3.30;;;1.60;;
6842;SDS011;3460;52.028;8.916;2023-04-02T09:25:46;4.87;;;1.77;;
6842;SDS011;3460;52.028;8.916;2023-04-02T09:28:14;4.33;;;1.77;;
6842;SDS011;3460;52.028;8.916;2023-04-02T09:30:44;4.60;;;1.67;;
6842;SDS011;3460;52.028;8.916;2023-04-02T09:36:06;2.37;;;1.60;;
6842;SDS011;3460;52.028;8.916;2023-04-02T09:38:58;2.40;;;1.50;;
6842;SDS011;3460;52.028;8.916;2023-04-02T09:41:30;2.57;;;1.60;;
6842;SDS011;3460;52.028;8.916;2023-04-02T09:46:53;6.10;;;2.20;;
6842;SDS011;3460;52.028;8.916;2023-04-02T09:49:24;2.20;;;1.47;;
6842;SDS011;3460;52.028;8.916;2023-04-02T09:52:05;3.07;;;1.60;;
6842;SDS011;3460;52.028;8.916;2023-04-02T09:54:46;2.83;;;1.63;;
6842;SDS011;3460;52.028;8.916;2023-04-02T09:57:30;2.93;;;1.50;;
6842;SDS011;3460;52.028;8.916;2023-04-02T10:00:07;3.07;;;1.90;;
6842;SDS011;3460;52.028;8.916;2023-04-02T10:02:38;4.93;;;1.70;;
6842;SDS011;3460;52.028;8.916;2023-04-02T10:05:08;3.40;;;1.77;;
6842;SDS011;3460;52.028;8.916;2023-04-02T10:07:44;4.30;;;1.70;;
6842;SDS011;3460;52.028;8.916;2023-04-02T10:10:20;3.63;;;1.50;;
6842;SDS011;3460;52.028;8.916;2023-04-02T10:12:50;2.53;;;1.47;;
6842;SDS011;3460;52.028;8.916;2023-04-02T10:15:25;3.83;;;1.60;;
6842;SDS011;3460;52.028;8.916;2023-04-02T10:18:00;5.90;;;1.67;;
6842;SDS011;3460;52.028;8.916;2023-04-02T10:20:32;4.67;;;1.90;;
6842;SDS011;3460;52.028;8.916;2023-04-02T10:23:03;3.07;;;1.67;;
6842;SDS011;3460;52.028;8.916;2023-04-02T10:25:31;4.07;;;1.77;;
6842;SDS011;3460;52.028;8.916;2023-04-02T10:28:08;3.63;;;1.90;;
6842;SDS011;3460;52.028;8.916;2023-04-02T10:30:44;2.80;;;1.67;;
6842;SDS011;3460;52.028;8.916;2023-04-02T10:33:31;5.63;;;1.57;;
6842;SDS011;3460;52.028;8.916;2023-04-02T10:36:02;5.50;;;1.80;;
6842;SDS011;3460;52.028;8.916;2023-04-02T10:38:39;2.50;;;1.80;;
6842;SDS011;3460;52.028;8.916;2023-04-02T10:41:12;4.70;;;2.10;;
6842;SDS011;3460;52.028;8.916;2023-04-02T10:43:52;5.47;;;2.20;;
6842;SDS011;3460;52.028;8.916;2023-04-02T10:46:43;3.60;;;1.57;;
6842;SDS011;3460;52.028;8.916;2023-04-02T10:49:22;4.33;;;2.20;;
6842;SDS011;3460;52.028;8.916;2023-04-02T10:51:57;2.10;;;1.60;;
6842;SDS011;3460;52.028;8.916;2023-04-02T10:54:30;3.03;;;1.63;;
6842;SDS011;3460;52.028;8.916;2023-04-02T10:57:04;3.30;;;1.60;;
6842;SDS011;3460;52.028;8.916;2023-04-02T10:59:36;2.70;;;1.60;;
6842;SDS011;3460;52.028;8.916;2023-04-02T11:02:13;2.57;;;2.00;;
6842;SDS011;3460;52.028;8.916;2023-04-02T11:04:57;3.27;;;1.57;;
6842;SDS011;3460;52.028;8.916;2023-04-02T11:07:31;3.17;;;1.87;;
6842;SDS011;3460;52.028;8.916;2023-04-02T11:10:04;5.47;;;1.70;;
6842;SDS011;3460;52.028;8.916;2023-04-02T11:12:36;3.20;;;1.57;;
6842;SDS011;3460;52.028;8.916;2023-04-02T11:15:12;2.67;;;1.50;;
6842;SDS011;3460;52.028;8.916;2023-04-02T11:17:41;1.70;;;1.40;;
6842;SDS011;3460;52.028;8.916;2023-04-02T11:23:09;5.23;;;2.00;;
6842;SDS011;3460;52.028;8.916;2023-04-02T11:25:37;3.57;;;1.90;;
6842;SDS011;3460;52.028;8.916;2023-04-02T11:28:12;3.50;;;1.63;;
6842;SDS011;3460;52.028;8.916;2023-04-02T11:30:48;2.63;;;1.40;;
6842;SDS011;3460;52.028;8.916;2023-04-02T11:33:34;3.17;;;2.10;;
6842;SDS011;3460;52.028;8.916;2023-04-02T11:39:07;2.90;;;1.30;;
6842;SDS011;3460;52.028;8.916;2023-04-02T11:44:29;1.63;;;1.30;;
6842;SDS011;3460;52.028;8.916;2023-04-02T11:47:15;2.17;;;1.77;;
6842;SDS011;3460;52.028;8.916;2023-04-02T11:52:52;4.23;;;1.70;;
6842;SDS011;3460;52.028;8.916;2023-04-02T11:55:26;3.00;;;1.57;;
6842;SDS011;3460;52.028;8.916;2023-04-02T11:58:05;4.73;;;1.67;;
6842;SDS011;3460;52.028;8.916;2023-04-02T12:04:15;2.93;;;1.40;;
6842;SDS011;3460;52.028;8.916;2023-04-02T12:07:18;3.77;;;1.80;;
6842;SDS011;3460;52.028;8.916;2023-04-02T12:10:01;3.27;;;1.77;;
6842;SDS011;3460;52.028;8.916;2023-04-02T12:12:33;2.77;;;1.80;;
6842;SDS011;3460;52.028;8.916;2023-04-02T12:15:03;2.37;;;1.43;;
6842;SDS011;3460;52.028;8.916;2023-04-02T12:17:35;4.80;;;1.57;;
6842;SDS011;3460;52.028;8.916;2023-04-02T12:20:12;5.10;;;1.67;;
6842;SDS011;3460;52.028;8.916;2023-04-02T12:22:46;2.63;;;1.50;;
6842;SDS011;3460;52.028;8.916;2023-04-02T12:25:20;2.97;;;1.70;;
6842;SDS011;3460;52.028;8.916;2023-04-02T12:28:03;4.63;;;1.80;;
6842;SDS011;3460;52.028;8.916;2023-04-02T12:30:31;5.77;;;1.90;;
6842;SDS011;3460;52.028;8.916;2023-04-02T12:33:12;3.73;;;1.40;;
6842;SDS011;3460;52.028;8.916;2023-04-02T12:35:41;2.20;;;1.30;;
6842;SDS011;3460;52.028;8.916;2023-04-02T12:38:17;3.00;;;1.53;;
6842;SDS011;3460;52.028;8.916;2023-04-02T12:40:50;3.90;;;1.37;;
6842;SDS011;3460;52.028;8.916;2023-04-02T12:43:28;4.23;;;1.50;;
6842;SDS011;3460;52.028;8.916;2023-04-02T12:45:57;3.33;;;1.60;;
6842;SDS011;3460;52.028;8.916;2023-04-02T12:48:25;3.40;;;1.60;;
6842;SDS011;3460;52.028;8.916;2023-04-02T12:50:53;2.80;;;1.60;;
6842;SDS011;3460;52.028;8.916;2023-04-02T12:53:21;2.33;;;1.30;;
6842;SDS011;3460;52.028;8.916;2023-04-02T12:55:51;4.57;;;1.87;;
6842;SDS011;3460;52.028;8.916;2023-04-02T12:58:27;1.80;;;1.40;;
6842;SDS011;3460;52.028;8.916;2023-04-02T13:01:10;5.43;;;1.77;;
6842;SDS011;3460;52.028;8.916;2023-04-02T13:03:38;3.80;;;1.77;;
6842;SDS011;3460;52.028;8.916;2023-04-02T13:06:16;5.50;;;1.70;;
6842;SDS011;3460;52.028;8.916;2023-04-02T13:08:47;2.33;;;1.50;;
6842;SDS011;3460;52.028;8.916;2023-04-02T13:11:14;3.47;;;1.60;;
6842;SDS011;3460;52.028;8.916;2023-04-02T13:13:43;4.33;;;1.50;;
6842;SDS011;3460;52.028;8.916;2023-04-02T13:19:09;3.30;;;1.70;;
6842;SDS011;3460;52.028;8.916;2023-04-02T13:21:51;3.83;;;1.80;;
6842;SDS011;3460;52.028;8.916;2023-04-02T13:24:18;1.80;;;1.50;;
6842;SDS011;3460;52.028;8.916;2023-04-02T13:26:47;2.13;;;1.40;;
6842;SDS011;3460;52.028;8.916;2023-04-02T13:29:18;4.43;;;1.70;;
6842;SDS011;3460;52.028;8.916;2023-04-02T13:31:47;3.10;;;1.40;;
6842;SDS011;3460;52.028;8.916;2023-04-02T13:34:15;2.70;;;1.60;;
6842;SDS011;3460;52.028;8.916;2023-04-02T13:36:43;2.47;;;1.50;;
6842;SDS011;3460;52.028;8.916;2023-04-02T13:39:10;3.57;;;1.70;;
6842;SDS011;3460;52.028;8.916;2023-04-02T13:41:38;2.10;;;1.50;;
6842;SDS011;3460;52.028;8.916;2023-04-02T13:44:10;2.10;;;1.50;;
6842;SDS011;3460;52.028;8.916;2023-04-02T13:46:45;5.60;;;1.63;;
6842;SDS011;3460;52.028;8.916;2023-04-02T13:49:12;2.47;;;1.43;;
6842;SDS011;3460;52.028;8.916;2023-04-02T13:51:40;3.00;;;1.40;;
6842;SDS011;3460;52.028;8.916;2023-04-02T13:54:11;5.13;;;2.00;;
6842;SDS011;3460;52.028;8.916;2023-04-02T13:56:46;2.30;;;1.60;;
6842;SDS011;3460;52.028;8.916;2023-04-02T13:59:13;6.43;;;1.63;;
6842;SDS011;3460;52.028;8.916;2023-04-02T14:01:40;2.80;;;1.50;;
6842;SDS011;3460;52.028;8.916;2023-04-02T14:04:11;3.90;;;1.47;;
6842;SDS011;3460;52.028;8.916;2023-04-02T14:06:47;2.57;;;1.20;;
6842;SDS011;3460;52.028;8.916;2023-04-02T14:09:29;3.27;;;1.60;;
6842;SDS011;3460;52.028;8.916;2023-04-02T14:12:04;2.07;;;1.40;;
6842;SDS011;3460;52.028;8.916;2023-04-02T14:14:38;2.83;;;2.20;;
6842;SDS011;3460;52.028;8.916;2023-04-02T14:17:21;6.43;;;1.70;;
6842;SDS011;3460;52.028;8.916;2023-04-02T14:22:52;4.10;;;1.47;;
6842;SDS011;3460;52.028;8.916;2023-04-02T14:25:43;3.07;;;1.60;;
6842;SDS011;3460;52.028;8.916;2023-04-02T14:28:20;5.97;;;1.43;;
6842;SDS011;3460;52.028;8.916;2023-04-02T14:31:03;2.90;;;1.50;;
6842;SDS011;3460;52.028;8.916;2023-04-02T14:33:38;2.43;;;1.40;;
6842;SDS011;3460;52.028;8.916;2023-04-02T14:36:13;3.17;;;1.63;;
6842;SDS011;3460;52.028;8.916;2023-04-02T14:38:47;2.77;;;1.30;;
6842;SDS011;3460;52.028;8.916;2023-04-02T14:41:21;2.13;;;1.50;;
6842;SDS011;3460;52.028;8.916;2023-04-02T14:43:55;2.67;;;1.20;;
6842;SDS011;3460;52.028;8.916;2023-04-02T14:46:26;4.27;;;1.30;;
6842;SDS011;3460;52.028;8.916;2023-04-02T14:48:56;2.13;;;1.40;;
6842;SDS011;3460;52.028;8.916;2023-04-02T14:51:32;3.40;;;1.80;;
6842;SDS011;3460;52.028;8.916;2023-04-02T14:54:03;3.10;;;1.70;;
6842;SDS011;3460;52.028;8.916;2023-04-02T14:56:35;2.80;;;1.37;;
6842;SDS011;3460;52.028;8.916;2023-04-02T14:59:11;4.33;;;2.13;;
6842;SDS011;3460;52.028;8.916;2023-04-02T15:02:00;4.67;;;1.50;;
6842;SDS011;3460;52.028;8.916;2023-04-02T15:04:33;2.53;;;1.30;;
6842;SDS011;3460;52.028;8.916;2023-04-02T15:07:10;4.70;;;1.40;;
6842;SDS011;3460;52.028;8.916;2023-04-02T15:09:44;3.87;;;1.60;;
6842;SDS011;3460;52.028;8.916;2023-04-02T15:12:16;2.83;;;1.57;;
6842;SDS011;3460;52.028;8.916;2023-04-02T15:14:47;2.23;;;1.57;;
6842;SDS011;3460;52.028;8.916;2023-04-02T15:17:18;3.97;;;1.40;;
6842;SDS011;3460;52.028;8.916;2023-04-02T15:19:46;2.37;;;1.27;;
6842;SDS011;3460;52.028;8.916;2023-04-02T15:22:21;3.77;;;1.77;;
6842;SDS011;3460;52.028;8.916;2023-04-02T15:25:00;2.13;;;1.40;;
6842;SDS011;3460;52.028;8.916;2023-04-02T15:27:47;3.93;;;1.33;;
6842;SDS011;3460;52.028;8.916;2023-04-02T15:30:22;2.23;;;1.40;;
6842;SDS011;3460;52.028;8.916;2023-04-02T15:32:51;3.23;;;1.60;;
6842;SDS011;3460;52.028;8.916;2023-04-02T15:35:25;3.20;;;1.57;;
6842;SDS011;3460;52.028;8.916;2023-04-02T15:38:03;2.10;;;1.30;;
6842;SDS011;3460;52.028;8.916;2023-04-02T15:43:23;2.23;;;1.37;;
6842;SDS011;3460;52.028;8.916;2023-04-02T15:45:57;6.87;;;2.20;;
6842;SDS011;3460;52.028;8.916;2023-04-02T15:51:44;2.27;;;1.37;;
6842;SDS011;3460;52.028;8.916;2023-04-02T15:54:28;3.03;;;1.90;;
6842;SDS011;3460;52.028;8.916;2023-04-02T15:57:10;3.43;;;1.93;;
6842;SDS011;3460;52.028;8.916;2023-04-02T15:59:49;6.37;;;2.60;;
6842;SDS011;3460;52.028;8.916;2023-04-02T16:02:41;4.10;;;2.67;;
6842;SDS011;3460;52.028;8.916;2023-04-02T16:05:27;3.87;;;1.97;;
6842;SDS011;3460;52.028;8.916;2023-04-02T16:08:16;2.40;;;1.50;;
6842;SDS011;3460;52.028;8.916;2023-04-02T16:10:55;1.83;;;1.30;;
6842;SDS011;3460;52.028;8.916;2023-04-02T16:13:25;4.13;;;1.70;;
6842;SDS011;3460;52.028;8.916;2023-04-02T16:15:56;3.20;;;1.40;;
6842;SDS011;3460;52.028;8.916;2023-04-02T16:18:31;2.50;;;1.33;;
6842;SDS011;3460;52.028;8.916;2023-04-02T16:21:03;3.73;;;1.80;;
6842;SDS011;3460;52.028;8.916;2023-04-02T16:23:33;2.57;;;1.40;;
6842;SDS011;3460;52.028;8.916;2023-04-02T16:26:07;3.37;;;1.80;;
6842;SDS011;3460;52.028;8.916;2023-04-02T16:28:48;4.83;;;1.20;;
6842;SDS011;3460;52.028;8.916;2023-04-02T16:31:23;1.93;;;1.27;;
6842;SDS011;3460;52.028;8.916;2023-04-02T16:33:54;1.90;;;1.00;;
6842;SDS011;3460;52.028;8.916;2023-04-02T16:36:33;3.07;;;1.40;;